sensor_id;sensor_type;location;lat;lon;timestamp;pressure;altitude;pressure_sealevel;temperature;humidity
40920;BME280;26652;50.280;19.026;2022-09-01T00:02:03;98756.47;;;15.31;84.62
40920;BME280;26652;50.280;19.026;2022-09-01T00:04:19;98751.53;;;15.23;84.55
40920;BME280;26652;50.280;19.026;2022-09-01T00:06:26;98746.62;;;15.21;84.72
40920;BME280;26652;50.280;19.026;2022-09-01T00:08:41;98743.47;;;15.19;85.01
40920;BME280;26652;50.280;19.026;2022-09-01T00:10:58;98748.59;;;15.13;85.57
40920;BME280;26652;50.280;19.026;2022-09-01T00:13:08;98743.66;;;15.11;85.51
40920;BME280;26652;50.280;19.026;2022-09-01T00:15:22;98752.94;;;15.12;85.58
40920;BME280;26652;50.280;19.026;2022-09-01T00:17:52;98743.66;;;15.11;85.59
40920;BME280;26652;50.280;19.026;2022-09-01T00:20:03;98744.25;;;15.13;85.68
40920;BME280;26652;50.280;19.026;2022-09-01T00:22:09;98745.63;;;15.16;85.81
40920;BME280;26652;50.280;19.026;2022-09-01T00:24:20;98745.63;;;15.16;85.42
40920;BME280;26652;50.280;19.026;2022-09-01T00:26:30;98731.84;;;15.03;85.29
40920;BME280;26652;50.280;19.026;2022-09-01T00:28:45;98751.34;;;15.18;85.65
40920;BME280;26652;50.280;19.026;2022-09-01T00:30:59;98755.09;;;15.15;85.61
40920;BME280;26652;50.280;19.026;2022-09-01T00:33:09;98748.59;;;15.13;85.88
40920;BME280;26652;50.280;19.026;2022-09-01T00:35:15;98745.81;;;15.14;86.02
40920;BME280;26652;50.280;19.026;2022-09-01T00:37:30;98757.28;;;15.12;85.81
40920;BME280;26652;50.280;19.026;2022-09-01T00:39:44;98751.94;;;15.07;86.15
40920;BME280;26652;50.280;19.026;2022-09-01T00:41:53;98747.41;;;15.15;85.97
40920;BME280;26652;50.280;19.026;2022-09-01T00:44:14;98750.75;;;15.16;85.86
40920;BME280;26652;50.280;19.026;2022-09-01T00:46:28;98737.94;;;15.09;85.67
40920;BME280;26652;50.280;19.026;2022-09-01T00:48:36;98747.00;;;15.12;85.84
40920;BME280;26652;50.280;19.026;2022-09-01T00:50:51;98740.50;;;15.09;86.17
40920;BME280;26652;50.280;19.026;2022-09-01T00:52:59;98736.97;;;15.10;86.10
40920;BME280;26652;50.280;19.026;2022-09-01T00:55:12;98739.72;;;15.15;86.16
40920;BME280;26652;50.280;19.026;2022-09-01T00:57:29;98729.66;;;15.14;86.00
40920;BME280;26652;50.280;19.026;2022-09-01T00:59:50;98739.50;;;15.23;86.17
40920;BME280;26652;50.280;19.026;2022-09-01T01:02:01;98734.19;;;15.25;85.90
40920;BME280;26652;50.280;19.026;2022-09-01T01:04:25;98717.81;;;15.19;86.30
40920;BME280;26652;50.280;19.026;2022-09-01T01:06:59;98735.75;;;15.26;86.26
40920;BME280;26652;50.280;19.026;2022-09-01T01:09:11;98733.00;;;15.21;85.63
40920;BME280;26652;50.280;19.026;2022-09-01T01:11:20;98739.12;;;15.20;86.08
40920;BME280;26652;50.280;19.026;2022-09-01T01:13:54;98736.34;;;15.21;85.83
40920;BME280;26652;50.280;19.026;2022-09-01T01:16:25;98735.97;;;15.18;86.39
40920;BME280;26652;50.280;19.026;2022-09-01T01:18:38;98734.78;;;15.14;86.80
40920;BME280;26652;50.280;19.026;2022-09-01T01:21:00;98740.31;;;15.11;87.12
40920;BME280;26652;50.280;19.026;2022-09-01T01:23:54;98736.19;;;15.03;87.75
40920;BME280;26652;50.280;19.026;2022-09-01T01:26:07;98742.47;;;15.00;87.63
40920;BME280;26652;50.280;19.026;2022-09-01T01:28:37;98740.91;;;14.99;87.78
40920;BME280;26652;50.280;19.026;2022-09-01T01:31:05;98745.84;;;14.94;87.75
40920;BME280;26652;50.280;19.026;2022-09-01T01:33:46;98731.06;;;14.90;88.33
40920;BME280;26652;50.280;19.026;2022-09-01T01:35:56;98741.88;;;14.92;88.08
40920;BME280;26652;50.280;19.026;2022-09-01T01:38:06;98726.31;;;14.80;87.90
40920;BME280;26652;50.280;19.026;2022-09-01T01:40:29;98739.34;;;14.98;87.34
40920;BME280;26652;50.280;19.026;2022-09-01T01:43:02;98740.91;;;15.06;86.84
40920;BME280;26652;50.280;19.026;2022-09-01T01:45:13;98739.12;;;15.07;86.66
40920;BME280;26652;50.280;19.026;2022-09-01T01:47:27;98741.50;;;15.08;86.66
40920;BME280;26652;50.280;19.026;2022-09-01T01:50:03;98740.69;;;15.14;86.44
40920;BME280;26652;50.280;19.026;2022-09-01T01:52:15;98733.41;;;15.11;86.52
40920;BME280;26652;50.280;19.026;2022-09-01T01:54:28;98734.19;;;15.05;86.31
40920;BME280;26652;50.280;19.026;2022-09-01T01:56:50;98731.62;;;14.98;86.92
40920;BME280;26652;50.280;19.026;2022-09-01T01:59:33;98741.31;;;14.90;87.02
40920;BME280;26652;50.280;19.026;2022-09-01T02:01:44;98737.94;;;14.83;87.88
40920;BME280;26652;50.280;19.026;2022-09-01T02:03:56;98733.03;;;14.81;88.03
40920;BME280;26652;50.280;19.026;2022-09-01T02:06:18;98730.84;;;14.85;87.59
40920;BME280;26652;50.280;19.026;2022-09-01T02:08:41;98734.19;;;14.79;87.70
40920;BME280;26652;50.280;19.026;2022-09-01T02:11:05;98730.44;;;14.75;88.59
40920;BME280;26652;50.280;19.026;2022-09-01T02:13:26;98729.84;;;14.72;88.15
40920;BME280;26652;50.280;19.026;2022-09-01T02:15:53;98723.75;;;14.67;88.61
40920;BME280;26652;50.280;19.026;2022-09-01T02:18:35;98727.31;;;14.79;87.89
40920;BME280;26652;50.280;19.026;2022-09-01T02:20:47;98726.50;;;14.72;88.08
40920;BME280;26652;50.280;19.026;2022-09-01T02:22:58;98722.19;;;14.79;88.56
40920;BME280;26652;50.280;19.026;2022-09-01T02:25:38;98724.94;;;14.78;88.34
40920;BME280;26652;50.280;19.026;2022-09-01T02:28:01;98729.06;;;14.79;88.34
40920;BME280;26652;50.280;19.026;2022-09-01T02:30:21;98728.69;;;14.82;88.03
40920;BME280;26652;50.280;19.026;2022-09-01T02:32:53;98722.16;;;14.72;88.20
40920;BME280;26652;50.280;19.026;2022-09-01T02:35:06;98727.50;;;14.71;88.67
40920;BME280;26652;50.280;19.026;2022-09-01T02:37:23;98721.97;;;14.67;89.19
40920;BME280;26652;50.280;19.026;2022-09-01T02:39:56;98726.09;;;14.62;89.32
40920;BME280;26652;50.280;19.026;2022-09-01T02:42:37;98713.31;;;14.55;89.62
40920;BME280;26652;50.280;19.026;2022-09-01T02:44:53;98727.50;;;14.71;88.99
40920;BME280;26652;50.280;19.026;2022-09-01T02:47:07;98722.97;;;14.66;89.00
40920;BME280;26652;50.280;19.026;2022-09-01T02:49:48;98722.75;;;14.61;89.34
40920;BME280;26652;50.280;19.026;2022-09-01T02:52:17;98718.44;;;14.55;89.94
40920;BME280;26652;50.280;19.026;2022-09-01T02:54:31;98712.69;;;14.60;89.87
40920;BME280;26652;50.280;19.026;2022-09-01T02:56:41;98711.53;;;14.69;89.52
40920;BME280;26652;50.280;19.026;2022-09-01T02:59:21;98710.34;;;14.65;89.57
40920;BME280;26652;50.280;19.026;2022-09-01T03:01:32;98716.44;;;14.57;90.27
40920;BME280;26652;50.280;19.026;2022-09-01T03:04:14;98709.56;;;14.64;90.09
40920;BME280;26652;50.280;19.026;2022-09-01T03:06:28;98716.06;;;14.73;89.60
40920;BME280;26652;50.280;19.026;2022-09-01T03:08:41;98715.06;;;14.81;88.97
40920;BME280;26652;50.280;19.026;2022-09-01T03:11:18;98716.06;;;14.87;88.99
40920;BME280;26652;50.280;19.026;2022-09-01T03:13:31;98710.94;;;14.80;89.47
40920;BME280;26652;50.280;19.026;2022-09-01T03:15:49;98718.81;;;14.65;89.97
40920;BME280;26652;50.280;19.026;2022-09-01T03:18:10;98711.91;;;14.59;91.59
40920;BME280;26652;50.280;19.026;2022-09-01T03:20:32;98715.28;;;14.66;91.03
40920;BME280;26652;50.280;19.026;2022-09-01T03:22:53;98721.59;;;14.77;90.43
40920;BME280;26652;50.280;19.026;2022-09-01T03:25:24;98689.84;;;14.58;89.38
40920;BME280;26652;50.280;19.026;2022-09-01T03:27:40;98714.88;;;14.76;89.37
40920;BME280;26652;50.280;19.026;2022-09-01T03:29:53;98720.78;;;14.77;89.25
40920;BME280;26652;50.280;19.026;2022-09-01T03:32:22;98724.75;;;14.79;88.90
40920;BME280;26652;50.280;19.026;2022-09-01T03:34:59;98713.50;;;14.67;88.81
40920;BME280;26652;50.280;19.026;2022-09-01T03:37:17;98725.34;;;14.55;89.39
40920;BME280;26652;50.280;19.026;2022-09-01T03:39:33;98713.69;;;14.46;90.54
40920;BME280;26652;50.280;19.026;2022-09-01T03:42:06;98718.00;;;14.38;90.93
40920;BME280;26652;50.280;19.026;2022-09-01T03:44:27;98717.59;;;14.35;91.73
40920;BME280;26652;50.280;19.026;2022-09-01T03:46:45;98723.13;;;14.38;91.39
40920;BME280;26652;50.280;19.026;2022-09-01T03:49:12;98716.41;;;14.37;91.28
40920;BME280;26652;50.280;19.026;2022-09-01T03:51:42;98723.09;;;14.32;91.40
40920;BME280;26652;50.280;19.026;2022-09-01T03:54:07;98723.50;;;14.35;91.47
40920;BME280;26652;50.280;19.026;2022-09-01T03:56:29;98719.53;;;14.26;91.79
40920;BME280;26652;50.280;19.026;2022-09-01T03:59:03;98728.03;;;14.33;92.24
40920;BME280;26652;50.280;19.026;2022-09-01T04:01:27;98725.25;;;14.28;92.50
40920;BME280;26652;50.280;19.026;2022-09-01T04:03:54;98728.81;;;14.27;92.23
40920;BME280;26652;50.280;19.026;2022-09-01T04:06:23;98734.72;;;14.28;92.83
40920;BME280;26652;50.280;19.026;2022-09-01T04:08:47;98725.44;;;14.27;93.17
40920;BME280;26652;50.280;19.026;2022-09-01T04:11:20;98732.34;;;14.33;92.34
40920;BME280;26652;50.280;19.026;2022-09-01T04:13:52;98732.53;;;14.25;92.60
40920;BME280;26652;50.280;19.026;2022-09-01T04:16:30;98734.31;;;14.24;93.60
40920;BME280;26652;50.280;19.026;2022-09-01T04:18:54;98735.25;;;14.10;94.56
40920;BME280;26652;50.280;19.026;2022-09-01T04:21:31;98735.06;;;14.12;96.11
40920;BME280;26652;50.280;19.026;2022-09-01T04:23:47;98736.00;;;14.04;97.53
40920;BME280;26652;50.280;19.026;2022-09-01T04:26:12;98735.44;;;14.08;96.64
40920;BME280;26652;50.280;19.026;2022-09-01T04:28:34;98730.69;;;13.99;97.38
40920;BME280;26652;50.280;19.026;2022-09-01T04:30:40;98733.66;;;14.09;97.79
40920;BME280;26652;50.280;19.026;2022-09-01T04:32:53;98739.78;;;14.08;97.90
40920;BME280;26652;50.280;19.026;2022-09-01T04:35:04;98735.06;;;14.18;97.71
40920;BME280;26652;50.280;19.026;2022-09-01T04:37:19;98744.16;;;14.27;96.09
40920;BME280;26652;50.280;19.026;2022-09-01T04:39:27;98739.41;;;14.18;97.08
40920;BME280;26652;50.280;19.026;2022-09-01T04:41:37;98733.72;;;14.29;96.62
40920;BME280;26652;50.280;19.026;2022-09-01T04:43:43;98739.28;;;14.39;95.74
40920;BME280;26652;50.280;19.026;2022-09-01T04:45:55;98739.06;;;14.34;94.77
40920;BME280;26652;50.280;19.026;2022-09-01T04:48:14;98738.91;;;14.42;95.91
40920;BME280;26652;50.280;19.026;2022-09-01T04:50:29;98738.13;;;14.48;94.76
40920;BME280;26652;50.280;19.026;2022-09-01T04:52:43;98749.56;;;14.65;93.54
40920;BME280;26652;50.280;19.026;2022-09-01T04:54:54;98752.72;;;14.74;92.13
40920;BME280;26652;50.280;19.026;2022-09-01T04:57:02;98741.88;;;14.65;91.83
40920;BME280;26652;50.280;19.026;2022-09-01T04:59:15;98750.75;;;14.69;91.76
40920;BME280;26652;50.280;19.026;2022-09-01T05:01:26;98750.75;;;14.76;91.62
40920;BME280;26652;50.280;19.026;2022-09-01T05:03:52;98745.84;;;14.81;91.06
40920;BME280;26652;50.280;19.026;2022-09-01T05:06:14;98745.63;;;14.69;91.93
40920;BME280;26652;50.280;19.026;2022-09-01T05:08:22;98745.84;;;14.81;91.37
40920;BME280;26652;50.280;19.026;2022-09-01T05:10:40;98748.78;;;14.98;90.01
40920;BME280;26652;50.280;19.026;2022-09-01T05:13:02;98748.78;;;14.91;90.23
40920;BME280;26652;50.280;19.026;2022-09-01T05:15:13;98749.78;;;15.03;89.36
40920;BME280;26652;50.280;19.026;2022-09-01T05:17:20;98752.72;;;15.20;89.34
40920;BME280;26652;50.280;19.026;2022-09-01T05:19:44;98754.91;;;15.17;88.59
40920;BME280;26652;50.280;19.026;2022-09-01T05:21:53;98743.84;;;15.29;88.21
40920;BME280;26652;50.280;19.026;2022-09-01T05:24:04;98745.00;;;15.47;87.20
40920;BME280;26652;50.280;19.026;2022-09-01T05:26:41;98751.50;;;15.49;85.97
40920;BME280;26652;50.280;19.026;2022-09-01T05:28:55;98753.06;;;15.63;85.95
40920;BME280;26652;50.280;19.026;2022-09-01T05:31:05;98731.94;;;15.61;84.75
40920;BME280;26652;50.280;19.026;2022-09-01T05:33:28;98743.34;;;15.72;84.79
40920;BME280;26652;50.280;19.026;2022-09-01T05:36:04;98747.28;;;15.81;84.34
40920;BME280;26652;50.280;19.026;2022-09-01T05:38:25;98750.44;;;15.83;84.86
40920;BME280;26652;50.280;19.026;2022-09-01T05:40:39;98738.59;;;15.82;85.34
40920;BME280;26652;50.280;19.026;2022-09-01T05:42:45;98752.75;;;15.91;83.80
40920;BME280;26652;50.280;19.026;2022-09-01T05:45:06;98746.22;;;15.95;83.28
40920;BME280;26652;50.280;19.026;2022-09-01T05:47:18;98746.19;;;16.02;83.55
40920;BME280;26652;50.280;19.026;2022-09-01T05:49:29;98752.69;;;16.11;82.26
40920;BME280;26652;50.280;19.026;2022-09-01T05:51:48;98745.56;;;16.13;82.32
40920;BME280;26652;50.280;19.026;2022-09-01T05:54:01;98749.53;;;16.09;81.64
40920;BME280;26652;50.280;19.026;2022-09-01T05:56:12;98745.75;;;16.12;82.35
40920;BME280;26652;50.280;19.026;2022-09-01T05:58:32;98750.66;;;16.20;81.93
40920;BME280;26652;50.280;19.026;2022-09-01T06:00:44;98754.22;;;16.19;81.47
40920;BME280;26652;50.280;19.026;2022-09-01T06:02:52;98752.38;;;16.32;81.33
40920;BME280;26652;50.280;19.026;2022-09-01T06:05:06;98749.19;;;16.37;80.39
40920;BME280;26652;50.280;19.026;2022-09-01T06:07:26;98758.22;;;16.46;80.02
40920;BME280;26652;50.280;19.026;2022-09-01T06:09:42;98751.09;;;16.48;79.94
40920;BME280;26652;50.280;19.026;2022-09-01T06:11:52;98754.88;;;16.46;79.74
40920;BME280;26652;50.280;19.026;2022-09-01T06:14:07;98756.44;;;16.47;81.08
40920;BME280;26652;50.280;19.026;2022-09-01T06:16:23;98761.19;;;16.50;80.04
40920;BME280;26652;50.280;19.026;2022-09-01T06:18:34;98758.66;;;16.43;80.02
40920;BME280;26652;50.280;19.026;2022-09-01T06:20:42;98755.91;;;16.38;80.65
40920;BME280;26652;50.280;19.026;2022-09-01T06:22:48;98763.94;;;16.48;80.52
40920;BME280;26652;50.280;19.026;2022-09-01T06:25:02;98754.66;;;16.47;81.12
40920;BME280;26652;50.280;19.026;2022-09-01T06:27:22;98750.78;;;16.38;79.94
40920;BME280;26652;50.280;19.026;2022-09-01T06:29:37;98761.59;;;16.47;79.59
40920;BME280;26652;50.280;19.026;2022-09-01T06:31:55;98770.22;;;16.59;78.63
40920;BME280;26652;50.280;19.026;2022-09-01T06:34:07;98762.25;;;16.67;79.16
40920;BME280;26652;50.280;19.026;2022-09-01T06:36:18;98773.66;;;16.78;77.40
40920;BME280;26652;50.280;19.026;2022-09-01T06:38:52;98772.19;;;16.88;77.65
40920;BME280;26652;50.280;19.026;2022-09-01T06:41:03;98770.88;;;17.29;76.03
40920;BME280;26652;50.280;19.026;2022-09-01T06:43:19;98780.78;;;17.87;73.31
40920;BME280;26652;50.280;19.026;2022-09-01T06:45:44;98782.63;;;18.46;70.43
40920;BME280;26652;50.280;19.026;2022-09-01T06:48:15;98788.91;;;18.92;67.76
40920;BME280;26652;50.280;19.026;2022-09-01T06:50:39;98785.22;;;19.35;67.79
40920;BME280;26652;50.280;19.026;2022-09-01T06:53:12;98791.31;;;19.64;64.17
40920;BME280;26652;50.280;19.026;2022-09-01T06:55:48;98798.75;;;19.88;63.93
40920;BME280;26652;50.280;19.026;2022-09-01T06:58:09;98795.84;;;20.25;61.62
40920;BME280;26652;50.280;19.026;2022-09-01T07:00:21;98800.66;;;20.33;60.10
40920;BME280;26652;50.280;19.026;2022-09-01T07:02:51;98796.25;;;20.34;60.39
40920;BME280;26652;50.280;19.026;2022-09-01T07:05:20;98804.91;;;19.99;60.73
40920;BME280;26652;50.280;19.026;2022-09-01T07:07:36;98796.69;;;19.74;61.41
40920;BME280;26652;50.280;19.026;2022-09-01T07:09:49;98806.75;;;19.87;61.06
40920;BME280;26652;50.280;19.026;2022-09-01T07:12:24;98802.19;;;19.66;62.69
40920;BME280;26652;50.280;19.026;2022-09-01T07:14:43;98799.06;;;19.52;61.72
40920;BME280;26652;50.280;19.026;2022-09-01T07:16:59;98798.06;;;19.53;62.59
40920;BME280;26652;50.280;19.026;2022-09-01T07:19:25;98805.00;;;19.64;62.47
40920;BME280;26652;50.280;19.026;2022-09-01T07:21:58;98801.97;;;19.44;63.71
40920;BME280;26652;50.280;19.026;2022-09-01T07:24:18;98803.53;;;19.33;62.21
40920;BME280;26652;50.280;19.026;2022-09-01T07:26:28;98806.44;;;19.25;61.68
40920;BME280;26652;50.280;19.026;2022-09-01T07:28:38;98804.19;;;19.17;63.04
40920;BME280;26652;50.280;19.026;2022-09-01T07:30:49;98807.78;;;19.27;63.49
40920;BME280;26652;50.280;19.026;2022-09-01T07:32:59;98805.31;;;19.21;63.78
40920;BME280;26652;50.280;19.026;2022-09-01T07:35:17;98810.59;;;19.14;62.54
40920;BME280;26652;50.280;19.026;2022-09-01T07:37:28;98812.25;;;19.09;61.50
40920;BME280;26652;50.280;19.026;2022-09-01T07:39:40;98808.19;;;18.89;63.18
40920;BME280;26652;50.280;19.026;2022-09-01T07:41:49;98808.44;;;19.00;62.90
40920;BME280;26652;50.280;19.026;2022-09-01T07:44:14;98808.97;;;18.90;62.03
40920;BME280;26652;50.280;19.026;2022-09-01T07:46:24;98815.03;;;18.84;63.84
40920;BME280;26652;50.280;19.026;2022-09-01T07:48:42;98806.06;;;18.86;65.08
40920;BME280;26652;50.280;19.026;2022-09-01T07:50:55;98812.87;;;18.81;64.05
40920;BME280;26652;50.280;19.026;2022-09-01T07:53:15;98815.47;;;18.92;64.31
40920;BME280;26652;50.280;19.026;2022-09-01T07:55:26;98810.13;;;19.06;64.53
40920;BME280;26652;50.280;19.026;2022-09-01T07:57:37;98811.47;;;19.08;62.91
40920;BME280;26652;50.280;19.026;2022-09-01T07:59:45;98808.00;;;19.14;65.35
40920;BME280;26652;50.280;19.026;2022-09-01T08:01:55;98816.16;;;19.00;61.38
40920;BME280;26652;50.280;19.026;2022-09-01T08:04:06;98803.72;;;19.08;63.63
40920;BME280;26652;50.280;19.026;2022-09-01T08:06:17;98809.03;;;19.25;61.67
40920;BME280;26652;50.280;19.026;2022-09-01T08:08:24;98802.50;;;19.34;60.63
40920;BME280;26652;50.280;19.026;2022-09-01T08:10:41;98807.69;;;19.34;58.44
40920;BME280;26652;50.280;19.026;2022-09-01T08:12:49;98813.28;;;19.31;58.06
40920;BME280;26652;50.280;19.026;2022-09-01T08:14:55;98829.53;;;19.08;56.66
40920;BME280;26652;50.280;19.026;2022-09-01T08:17:10;98811.56;;;19.02;57.48
40920;BME280;26652;50.280;19.026;2022-09-01T08:19:19;98814.28;;;19.18;57.50
40920;BME280;26652;50.280;19.026;2022-09-01T08:21:27;98811.50;;;19.20;57.52
40920;BME280;26652;50.280;19.026;2022-09-01T08:23:38;98816.78;;;19.37;57.61
40920;BME280;26652;50.280;19.026;2022-09-01T08:25:46;98814.63;;;19.45;56.74
40920;BME280;26652;50.280;19.026;2022-09-01T08:27:51;98818.81;;;19.58;57.34
40920;BME280;26652;50.280;19.026;2022-09-01T08:30:12;98814.00;;;19.62;57.23
40920;BME280;26652;50.280;19.026;2022-09-01T08:32:19;98825.78;;;19.57;57.30
40920;BME280;26652;50.280;19.026;2022-09-01T08:34:28;98823.62;;;19.66;57.53
40920;BME280;26652;50.280;19.026;2022-09-01T08:36:44;98813.75;;;19.63;58.51
40920;BME280;26652;50.280;19.026;2022-09-01T08:38:58;98818.09;;;19.86;59.76
40920;BME280;26652;50.280;19.026;2022-09-01T08:41:16;98815.59;;;19.91;57.30
40920;BME280;26652;50.280;19.026;2022-09-01T08:46:35;98813.81;;;19.91;57.18
40920;BME280;26652;50.280;19.026;2022-09-01T08:49:13;98820.16;;;19.61;57.54
40920;BME280;26652;50.280;19.026;2022-09-01T08:51:38;98823.97;;;19.70;58.01
40920;BME280;26652;50.280;19.026;2022-09-01T08:56:27;98820.03;;;19.44;57.75
40920;BME280;26652;50.280;19.026;2022-09-01T08:58:39;98818.78;;;19.23;58.30
40920;BME280;26652;50.280;19.026;2022-09-01T09:01:30;98820.31;;;19.01;58.49
40920;BME280;26652;50.280;19.026;2022-09-01T09:04:52;98824.00;;;18.93;59.13
40920;BME280;26652;50.280;19.026;2022-09-01T09:09:08;98810.44;;;18.56;59.51
40920;BME280;26652;50.280;19.026;2022-09-01T09:16:41;98808.66;;;18.56;60.67
40920;BME280;26652;50.280;19.026;2022-09-01T09:19:27;98817.97;;;18.57;61.13
40920;BME280;26652;50.280;19.026;2022-09-01T09:21:58;98817.06;;;18.52;60.70
40920;BME280;26652;50.280;19.026;2022-09-01T09:24:29;98808.97;;;18.48;59.48
40920;BME280;26652;50.280;19.026;2022-09-01T09:27:02;98810.88;;;18.53;58.39
40920;BME280;26652;50.280;19.026;2022-09-01T09:29:36;98787.88;;;18.70;58.71
40920;BME280;26652;50.280;19.026;2022-09-01T09:32:00;98812.13;;;19.04;57.13
40920;BME280;26652;50.280;19.026;2022-09-01T09:34:37;98817.88;;;19.17;56.18
40920;BME280;26652;50.280;19.026;2022-09-01T09:36:46;98811.84;;;19.35;56.67
40920;BME280;26652;50.280;19.026;2022-09-01T09:39:20;98813.41;;;19.48;56.66
40920;BME280;26652;50.280;19.026;2022-09-01T09:41:29;98816.12;;;19.53;55.61
40920;BME280;26652;50.280;19.026;2022-09-01T09:46:36;98808.25;;;19.48;56.48
40920;BME280;26652;50.280;19.026;2022-09-01T09:49:12;98802.50;;;19.46;56.67
40920;BME280;26652;50.280;19.026;2022-09-01T09:51:20;98813.75;;;19.40;55.04
40920;BME280;26652;50.280;19.026;2022-09-01T09:53:30;98813.28;;;19.19;53.87
40920;BME280;26652;50.280;19.026;2022-09-01T09:56:03;98811.72;;;19.18;54.00
40920;BME280;26652;50.280;19.026;2022-09-01T09:58:20;98805.19;;;19.16;54.48
40920;BME280;26652;50.280;19.026;2022-09-01T10:00:33;98805.09;;;19.22;53.75
40920;BME280;26652;50.280;19.026;2022-09-01T10:02:44;98803.53;;;19.33;52.98
40920;BME280;26652;50.280;19.026;2022-09-01T10:04:52;98815.69;;;19.56;52.62
40920;BME280;26652;50.280;19.026;2022-09-01T10:06:58;98798.03;;;19.65;53.65
40920;BME280;26652;50.280;19.026;2022-09-01T10:09:36;98806.75;;;19.87;52.34
40920;BME280;26652;50.280;19.026;2022-09-01T10:11:43;98797.25;;;20.04;50.63
40920;BME280;26652;50.280;19.026;2022-09-01T10:13:49;98807.34;;;20.17;51.09
40920;BME280;26652;50.280;19.026;2022-09-01T10:16:12;98807.88;;;20.19;50.19
40920;BME280;26652;50.280;19.026;2022-09-01T10:18:27;98811.37;;;20.13;49.75
40920;BME280;26652;50.280;19.026;2022-09-01T10:20:37;98809.25;;;20.10;49.05
40920;BME280;26652;50.280;19.026;2022-09-01T10:22:48;98811.37;;;20.13;48.90
40920;BME280;26652;50.280;19.026;2022-09-01T10:24:58;98808.16;;;20.06;48.26
40920;BME280;26652;50.280;19.026;2022-09-01T10:27:28;98805.25;;;19.91;48.51
40920;BME280;26652;50.280;19.026;2022-09-01T10:29:45;98803.22;;;20.05;48.14
40920;BME280;26652;50.280;19.026;2022-09-01T10:31:55;98798.66;;;20.23;48.56
40920;BME280;26652;50.280;19.026;2022-09-01T10:34:03;98803.22;;;20.33;46.42
40920;BME280;26652;50.280;19.026;2022-09-01T10:36:14;98793.41;;;20.47;47.22
40920;BME280;26652;50.280;19.026;2022-09-01T10:38:26;98797.59;;;20.65;47.58
40920;BME280;26652;50.280;19.026;2022-09-01T10:40:40;98790.81;;;20.75;47.33
40920;BME280;26652;50.280;19.026;2022-09-01T10:42:56;98794.06;;;20.87;47.29
40920;BME280;26652;50.280;19.026;2022-09-01T10:45:01;98798.16;;;21.00;46.47
40920;BME280;26652;50.280;19.026;2022-09-01T10:47:32;98791.41;;;20.99;47.48
40920;BME280;26652;50.280;19.026;2022-09-01T10:51:58;98796.97;;;21.08;47.33
40920;BME280;26652;50.280;19.026;2022-09-01T10:54:06;98780.97;;;21.11;47.67
40920;BME280;26652;50.280;19.026;2022-09-01T10:56:44;98791.94;;;21.18;47.00
40920;BME280;26652;50.280;19.026;2022-09-01T10:59:25;98791.41;;;21.33;48.65
40920;BME280;26652;50.280;19.026;2022-09-01T11:03:55;98796.19;;;20.90;46.04
40920;BME280;26652;50.280;19.026;2022-09-01T11:06:07;98797.53;;;20.76;47.29
40920;BME280;26652;50.280;19.026;2022-09-01T11:08:44;98785.16;;;20.78;48.63
40920;BME280;26652;50.280;19.026;2022-09-01T11:15:45;98788.91;;;21.04;46.77
40920;BME280;26652;50.280;19.026;2022-09-01T11:17:57;98777.53;;;21.22;47.65
40920;BME280;26652;50.280;19.026;2022-09-01T11:20:09;98797.75;;;21.42;45.62
40920;BME280;26652;50.280;19.026;2022-09-01T11:22:29;98792.44;;;21.32;47.15
40920;BME280;26652;50.280;19.026;2022-09-01T11:24:44;98789.78;;;21.27;46.18
40920;BME280;26652;50.280;19.026;2022-09-01T11:26:53;98784.91;;;20.97;47.75
40920;BME280;26652;50.280;19.026;2022-09-01T11:29:04;98779.31;;;20.88;47.46
40920;BME280;26652;50.280;19.026;2022-09-01T11:31:25;98783.50;;;20.72;47.62
40920;BME280;26652;50.280;19.026;2022-09-01T11:33:51;98788.59;;;20.67;48.18
40920;BME280;26652;50.280;19.026;2022-09-01T11:36:12;98793.22;;;20.65;49.12
40920;BME280;26652;50.280;19.026;2022-09-01T11:38:18;98783.41;;;20.67;48.43
40920;BME280;26652;50.280;19.026;2022-09-01T11:40:28;98778.25;;;20.67;48.21
40920;BME280;26652;50.280;19.026;2022-09-01T11:42:43;98771.91;;;20.75;48.73
40920;BME280;26652;50.280;19.026;2022-09-01T11:47:13;98790.16;;;21.18;47.21
40920;BME280;26652;50.280;19.026;2022-09-01T11:49:38;98786.38;;;20.93;46.62
40920;BME280;26652;50.280;19.026;2022-09-01T11:51:46;98780.44;;;20.75;46.35
40920;BME280;26652;50.280;19.026;2022-09-01T11:53:51;98775.09;;;20.48;47.77
40920;BME280;26652;50.280;19.026;2022-09-01T11:56:24;98777.97;;;20.23;47.25
40920;BME280;26652;50.280;19.026;2022-09-01T11:58:35;98778.72;;;20.36;47.25
40920;BME280;26652;50.280;19.026;2022-09-01T12:00:43;98766.13;;;20.39;48.23
40920;BME280;26652;50.280;19.026;2022-09-01T12:02:53;98769.69;;;20.50;49.36
40920;BME280;26652;50.280;19.026;2022-09-01T12:05:21;98776.34;;;20.46;48.27
40920;BME280;26652;50.280;19.026;2022-09-01T12:07:41;98770.09;;;20.75;48.19
40920;BME280;26652;50.280;19.026;2022-09-01T12:09:52;98764.03;;;20.86;44.40
40920;BME280;26652;50.280;19.026;2022-09-01T12:12:04;98772.19;;;21.12;45.53
40920;BME280;26652;50.280;19.026;2022-09-01T12:14:17;98767.56;;;21.14;44.66
40920;BME280;26652;50.280;19.026;2022-09-01T12:16:30;98766.78;;;21.30;44.32
40920;BME280;26652;50.280;19.026;2022-09-01T12:18:45;98768.03;;;21.28;44.31
40920;BME280;26652;50.280;19.026;2022-09-01T12:20:55;98767.97;;;21.23;42.97
40920;BME280;26652;50.280;19.026;2022-09-01T12:25:41;98766.53;;;20.81;43.50
40920;BME280;26652;50.280;19.026;2022-09-01T12:27:48;98758.00;;;20.81;44.34
40920;BME280;26652;50.280;19.026;2022-09-01T12:29:59;98764.13;;;20.75;45.17
40920;BME280;26652;50.280;19.026;2022-09-01T12:32:09;98764.38;;;20.73;45.04
40920;BME280;26652;50.280;19.026;2022-09-01T12:37:17;98765.94;;;20.74;44.66